sensor_id;sensor_type;location;lat;lon;timestamp;P1;durP1;ratioP1;P2;durP2;ratioP2
15312;SDS011;7757;52.626;4.746;2023-07-02T00:01:48;20.27;;;5.63;;
15312;SDS011;7757;52.626;4.746;2023-07-02T00:04:14;17.10;;;4.90;;
15312;SDS011;7757;52.626;4.746;2023-07-02T00:06:45;21.05;;;5.90;;
15312;SDS011;7757;52.626;4.746;2023-07-02T00:09:14;21.58;;;5.97;;
15312;SDS011;7757;52.626;4.746;2023-07-02T00:11:44;22.13;;;5.70;;
15312;SDS011;7757;52.626;4.746;2023-07-02T00:14:19;21.35;;;5.43;;
15312;SDS011;7757;52.626;4.746;2023-07-02T00:16:44;23.13;;;6.07;;
15312;SDS011;7757;52.626;4.746;2023-07-02T00:19:11;21.73;;;5.97;;
15312;SDS011;7757;52.626;4.746;2023-07-02T00:21:38;23.25;;;5.15;;
15312;SDS011;7757;52.626;4.746;2023-07-02T00:24:05;18.88;;;5.43;;
15312;SDS011;7757;52.626;4.746;2023-07-02T00:26:31;20.95;;;5.30;;
15312;SDS011;7757;52.626;4.746;2023-07-02T00:29:00;18.25;;;5.65;;
15312;SDS011;7757;52.626;4.746;2023-07-02T00:31:25;19.50;;;5.55;;
15312;SDS011;7757;52.626;4.746;2023-07-02T00:33:50;20.23;;;6.10;;
15312;SDS011;7757;52.626;4.746;2023-07-02T00:36:16;17.60;;;5.18;;
15312;SDS011;7757;52.626;4.746;2023-07-02T00:38:45;19.92;;;5.72;;
15312;SDS011;7757;52.626;4.746;2023-07-02T00:41:12;20.13;;;5.35;;
15312;SDS011;7757;52.626;4.746;2023-07-02T00:43:41;24.30;;;5.88;;
15312;SDS011;7757;52.626;4.746;2023-07-02T00:46:24;22.73;;;5.30;;
15312;SDS011;7757;52.626;4.746;2023-07-02T00:48:51;20.00;;;5.57;;
15312;SDS011;7757;52.626;4.746;2023-07-02T00:51:22;17.75;;;5.47;;
15312;SDS011;7757;52.626;4.746;2023-07-02T00:53:50;22.70;;;5.88;;
15312;SDS011;7757;52.626;4.746;2023-07-02T00:56:17;20.65;;;5.45;;
15312;SDS011;7757;52.626;4.746;2023-07-02T00:58:46;22.23;;;5.88;;
15312;SDS011;7757;52.626;4.746;2023-07-02T01:01:16;23.02;;;5.35;;
15312;SDS011;7757;52.626;4.746;2023-07-02T01:03:56;22.23;;;5.53;;
15312;SDS011;7757;52.626;4.746;2023-07-02T01:06:22;18.08;;;5.32;;
15312;SDS011;7757;52.626;4.746;2023-07-02T01:08:56;20.30;;;5.47;;
15312;SDS011;7757;52.626;4.746;2023-07-02T01:11:57;20.02;;;5.88;;
15312;SDS011;7757;52.626;4.746;2023-07-02T01:14:22;19.25;;;5.45;;
15312;SDS011;7757;52.626;4.746;2023-07-02T01:16:49;20.27;;;5.50;;
15312;SDS011;7757;52.626;4.746;2023-07-02T01:22:00;22.42;;;5.28;;
15312;SDS011;7757;52.626;4.746;2023-07-02T01:24:26;21.35;;;5.55;;
15312;SDS011;7757;52.626;4.746;2023-07-02T01:26:55;19.90;;;5.50;;
15312;SDS011;7757;52.626;4.746;2023-07-02T01:29:28;23.02;;;6.30;;
15312;SDS011;7757;52.626;4.746;2023-07-02T01:31:55;20.33;;;5.70;;
15312;SDS011;7757;52.626;4.746;2023-07-02T01:34:21;23.45;;;5.65;;
15312;SDS011;7757;52.626;4.746;2023-07-02T01:36:46;25.08;;;6.45;;
15312;SDS011;7757;52.626;4.746;2023-07-02T01:39:12;25.50;;;5.68;;
15312;SDS011;7757;52.626;4.746;2023-07-02T01:41:53;25.17;;;5.75;;
15312;SDS011;7757;52.626;4.746;2023-07-02T01:44:20;29.27;;;6.30;;
15312;SDS011;7757;52.626;4.746;2023-07-02T01:46:47;18.95;;;5.57;;
15312;SDS011;7757;52.626;4.746;2023-07-02T01:49:18;20.42;;;5.57;;
15312;SDS011;7757;52.626;4.746;2023-07-02T01:51:50;21.35;;;5.35;;
15312;SDS011;7757;52.626;4.746;2023-07-02T01:54:17;19.58;;;5.75;;
15312;SDS011;7757;52.626;4.746;2023-07-02T01:56:46;32.25;;;6.13;;
15312;SDS011;7757;52.626;4.746;2023-07-02T01:59:11;21.33;;;5.57;;
15312;SDS011;7757;52.626;4.746;2023-07-02T02:01:37;20.70;;;5.35;;
15312;SDS011;7757;52.626;4.746;2023-07-02T02:04:06;18.80;;;5.57;;
15312;SDS011;7757;52.626;4.746;2023-07-02T02:06:31;21.42;;;6.05;;
15312;SDS011;7757;52.626;4.746;2023-07-02T02:09:00;21.48;;;5.68;;
15312;SDS011;7757;52.626;4.746;2023-07-02T02:11:28;24.65;;;5.57;;
15312;SDS011;7757;52.626;4.746;2023-07-02T02:13:53;22.73;;;6.20;;
15312;SDS011;7757;52.626;4.746;2023-07-02T02:16:19;23.65;;;5.45;;
15312;SDS011;7757;52.626;4.746;2023-07-02T02:18:45;21.02;;;5.38;;
15312;SDS011;7757;52.626;4.746;2023-07-02T02:21:10;19.13;;;5.50;;
15312;SDS011;7757;52.626;4.746;2023-07-02T02:23:36;19.88;;;5.47;;
15312;SDS011;7757;52.626;4.746;2023-07-02T02:26:04;32.10;;;6.43;;
15312;SDS011;7757;52.626;4.746;2023-07-02T02:28:30;24.00;;;5.95;;
15312;SDS011;7757;52.626;4.746;2023-07-02T02:30:58;18.08;;;5.32;;
15312;SDS011;7757;52.626;4.746;2023-07-02T02:33:24;21.40;;;5.65;;
15312;SDS011;7757;52.626;4.746;2023-07-02T02:35:49;24.52;;;5.88;;
15312;SDS011;7757;52.626;4.746;2023-07-02T02:38:18;21.73;;;5.97;;
15312;SDS011;7757;52.626;4.746;2023-07-02T02:40:43;18.35;;;5.85;;
15312;SDS011;7757;52.626;4.746;2023-07-02T02:43:08;21.02;;;5.68;;
15312;SDS011;7757;52.626;4.746;2023-07-02T02:45:34;18.85;;;5.07;;
15312;SDS011;7757;52.626;4.746;2023-07-02T02:48:02;20.98;;;5.38;;
15312;SDS011;7757;52.626;4.746;2023-07-02T02:50:28;21.13;;;5.72;;
15312;SDS011;7757;52.626;4.746;2023-07-02T02:52:53;21.10;;;5.47;;
15312;SDS011;7757;52.626;4.746;2023-07-02T02:55:19;20.48;;;5.72;;
15312;SDS011;7757;52.626;4.746;2023-07-02T02:57:44;22.80;;;6.22;;
15312;SDS011;7757;52.626;4.746;2023-07-02T03:00:10;25.50;;;6.20;;
15312;SDS011;7757;52.626;4.746;2023-07-02T03:02:37;21.77;;;5.97;;
15312;SDS011;7757;52.626;4.746;2023-07-02T03:05:03;22.13;;;5.88;;
15312;SDS011;7757;52.626;4.746;2023-07-02T03:07:29;24.40;;;6.38;;
15312;SDS011;7757;52.626;4.746;2023-07-02T03:09:59;20.67;;;4.78;;
15312;SDS011;7757;52.626;4.746;2023-07-02T03:12:25;19.90;;;6.13;;
15312;SDS011;7757;52.626;4.746;2023-07-02T03:14:51;20.23;;;5.80;;
15312;SDS011;7757;52.626;4.746;2023-07-02T03:17:19;18.95;;;5.15;;
15312;SDS011;7757;52.626;4.746;2023-07-02T03:19:45;29.10;;;6.00;;
15312;SDS011;7757;52.626;4.746;2023-07-02T03:22:11;26.08;;;5.82;;
15312;SDS011;7757;52.626;4.746;2023-07-02T03:24:37;23.17;;;6.00;;
15312;SDS011;7757;52.626;4.746;2023-07-02T03:27:05;19.95;;;5.57;;
15312;SDS011;7757;52.626;4.746;2023-07-02T03:29:34;23.63;;;6.45;;
15312;SDS011;7757;52.626;4.746;2023-07-02T03:32:00;23.65;;;6.05;;
15312;SDS011;7757;52.626;4.746;2023-07-02T03:34:26;20.80;;;6.03;;
15312;SDS011;7757;52.626;4.746;2023-07-02T03:36:51;24.33;;;5.10;;
15312;SDS011;7757;52.626;4.746;2023-07-02T03:39:17;23.20;;;5.75;;
15312;SDS011;7757;52.626;4.746;2023-07-02T03:41:43;21.88;;;5.95;;
15312;SDS011;7757;52.626;4.746;2023-07-02T03:44:08;23.10;;;6.35;;
15312;SDS011;7757;52.626;4.746;2023-07-02T03:46:34;22.10;;;5.15;;
15312;SDS011;7757;52.626;4.746;2023-07-02T03:49:00;18.80;;;5.30;;
15312;SDS011;7757;52.626;4.746;2023-07-02T03:51:25;17.33;;;5.07;;
15312;SDS011;7757;52.626;4.746;2023-07-02T03:53:51;19.85;;;5.70;;
15312;SDS011;7757;52.626;4.746;2023-07-02T03:56:16;20.33;;;5.45;;
15312;SDS011;7757;52.626;4.746;2023-07-02T03:58:42;18.67;;;6.20;;
15312;SDS011;7757;52.626;4.746;2023-07-02T04:01:07;22.75;;;5.90;;
15312;SDS011;7757;52.626;4.746;2023-07-02T04:03:33;19.08;;;5.47;;
15312;SDS011;7757;52.626;4.746;2023-07-02T04:05:58;20.80;;;5.88;;
15312;SDS011;7757;52.626;4.746;2023-07-02T04:08:23;24.70;;;5.30;;
15312;SDS011;7757;52.626;4.746;2023-07-02T04:10:53;17.23;;;4.85;;
15312;SDS011;7757;52.626;4.746;2023-07-02T04:13:19;25.45;;;5.53;;
15312;SDS011;7757;52.626;4.746;2023-07-02T04:15:45;35.63;;;5.20;;
15312;SDS011;7757;52.626;4.746;2023-07-02T04:18:13;24.95;;;5.85;;
15312;SDS011;7757;52.626;4.746;2023-07-02T04:20:39;21.83;;;6.10;;
15312;SDS011;7757;52.626;4.746;2023-07-02T04:23:04;20.95;;;5.50;;
15312;SDS011;7757;52.626;4.746;2023-07-02T04:25:30;18.75;;;5.25;;
15312;SDS011;7757;52.626;4.746;2023-07-02T04:27:56;18.15;;;5.30;;
15312;SDS011;7757;52.626;4.746;2023-07-02T04:30:26;17.88;;;5.28;;
15312;SDS011;7757;52.626;4.746;2023-07-02T04:32:51;18.15;;;5.47;;
15312;SDS011;7757;52.626;4.746;2023-07-02T04:35:17;20.30;;;5.43;;
15312;SDS011;7757;52.626;4.746;2023-07-02T04:37:43;18.77;;;5.85;;
15312;SDS011;7757;52.626;4.746;2023-07-02T04:40:09;18.45;;;4.90;;
15312;SDS011;7757;52.626;4.746;2023-07-02T04:42:36;19.15;;;5.25;;
15312;SDS011;7757;52.626;4.746;2023-07-02T04:45:03;19.75;;;5.60;;
15312;SDS011;7757;52.626;4.746;2023-07-02T04:47:36;18.40;;;4.93;;
15312;SDS011;7757;52.626;4.746;2023-07-02T04:50:10;23.60;;;5.07;;
15312;SDS011;7757;52.626;4.746;2023-07-02T04:52:36;19.70;;;5.03;;
15312;SDS011;7757;52.626;4.746;2023-07-02T04:55:04;24.13;;;5.10;;
15312;SDS011;7757;52.626;4.746;2023-07-02T04:57:30;21.65;;;5.65;;
15312;SDS011;7757;52.626;4.746;2023-07-02T04:59:55;17.38;;;5.10;;
15312;SDS011;7757;52.626;4.746;2023-07-02T05:02:21;31.70;;;5.30;;
15312;SDS011;7757;52.626;4.746;2023-07-02T05:04:46;19.70;;;4.97;;
15312;SDS011;7757;52.626;4.746;2023-07-02T05:07:11;17.58;;;4.68;;
15312;SDS011;7757;52.626;4.746;2023-07-02T05:09:37;19.80;;;5.57;;
15312;SDS011;7757;52.626;4.746;2023-07-02T05:12:02;20.23;;;4.65;;
15312;SDS011;7757;52.626;4.746;2023-07-02T05:14:28;19.35;;;4.80;;
15312;SDS011;7757;52.626;4.746;2023-07-02T05:16:53;17.67;;;5.28;;
15312;SDS011;7757;52.626;4.746;2023-07-02T05:19:21;23.73;;;4.93;;
15312;SDS011;7757;52.626;4.746;2023-07-02T05:21:47;20.35;;;5.28;;
15312;SDS011;7757;52.626;4.746;2023-07-02T05:24:12;19.67;;;4.95;;
15312;SDS011;7757;52.626;4.746;2023-07-02T05:26:37;20.98;;;5.28;;
15312;SDS011;7757;52.626;4.746;2023-07-02T05:29:03;20.08;;;4.85;;
15312;SDS011;7757;52.626;4.746;2023-07-02T05:31:33;21.67;;;5.20;;
15312;SDS011;7757;52.626;4.746;2023-07-02T05:33:59;20.48;;;5.05;;
15312;SDS011;7757;52.626;4.746;2023-07-02T05:36:24;20.17;;;5.28;;
15312;SDS011;7757;52.626;4.746;2023-07-02T05:38:50;20.35;;;4.85;;
15312;SDS011;7757;52.626;4.746;2023-07-02T05:41:17;21.88;;;4.43;;
15312;SDS011;7757;52.626;4.746;2023-07-02T05:43:43;20.63;;;5.28;;
15312;SDS011;7757;52.626;4.746;2023-07-02T05:46:09;19.92;;;4.78;;
15312;SDS011;7757;52.626;4.746;2023-07-02T05:48:34;21.70;;;4.68;;
15312;SDS011;7757;52.626;4.746;2023-07-02T05:50:59;16.65;;;4.40;;
15312;SDS011;7757;52.626;4.746;2023-07-02T05:53:25;16.55;;;4.30;;
15312;SDS011;7757;52.626;4.746;2023-07-02T05:55:53;17.63;;;4.45;;
15312;SDS011;7757;52.626;4.746;2023-07-02T05:58:19;26.63;;;5.97;;
15312;SDS011;7757;52.626;4.746;2023-07-02T06:00:44;21.38;;;5.18;;
15312;SDS011;7757;52.626;4.746;2023-07-02T06:03:14;17.88;;;4.55;;
15312;SDS011;7757;52.626;4.746;2023-07-02T06:05:48;20.30;;;4.57;;
15312;SDS011;7757;52.626;4.746;2023-07-02T06:08:15;23.75;;;5.75;;
15312;SDS011;7757;52.626;4.746;2023-07-02T06:10:41;21.83;;;5.43;;
15312;SDS011;7757;52.626;4.746;2023-07-02T06:13:07;20.35;;;4.95;;
15312;SDS011;7757;52.626;4.746;2023-07-02T06:15:32;20.70;;;5.72;;
15312;SDS011;7757;52.626;4.746;2023-07-02T06:18:01;19.13;;;5.03;;
15312;SDS011;7757;52.626;4.746;2023-07-02T06:20:26;18.17;;;4.63;;
15312;SDS011;7757;52.626;4.746;2023-07-02T06:22:51;22.17;;;5.30;;
15312;SDS011;7757;52.626;4.746;2023-07-02T06:25:17;17.15;;;4.85;;
15312;SDS011;7757;52.626;4.746;2023-07-02T06:27:45;17.88;;;4.95;;
15312;SDS011;7757;52.626;4.746;2023-07-02T06:30:10;20.75;;;4.75;;
15312;SDS011;7757;52.626;4.746;2023-07-02T06:32:36;16.77;;;5.25;;
15312;SDS011;7757;52.626;4.746;2023-07-02T06:35:02;20.50;;;5.25;;
15312;SDS011;7757;52.626;4.746;2023-07-02T06:37:31;21.30;;;5.07;;
15312;SDS011;7757;52.626;4.746;2023-07-02T06:39:56;18.65;;;4.72;;
15312;SDS011;7757;52.626;4.746;2023-07-02T06:42:22;17.08;;;4.95;;
15312;SDS011;7757;52.626;4.746;2023-07-02T06:44:47;14.93;;;4.45;;
15312;SDS011;7757;52.626;4.746;2023-07-02T06:47:13;18.27;;;4.00;;
15312;SDS011;7757;52.626;4.746;2023-07-02T06:49:38;18.20;;;4.68;;
15312;SDS011;7757;52.626;4.746;2023-07-02T06:52:04;16.92;;;4.25;;
15312;SDS011;7757;52.626;4.746;2023-07-02T06:54:32;16.38;;;4.30;;
15312;SDS011;7757;52.626;4.746;2023-07-02T06:56:58;19.42;;;4.78;;
15312;SDS011;7757;52.626;4.746;2023-07-02T06:59:24;16.92;;;4.28;;
15312;SDS011;7757;52.626;4.746;2023-07-02T07:01:49;16.92;;;4.10;;
15312;SDS011;7757;52.626;4.746;2023-07-02T07:04:15;16.17;;;4.43;;
15312;SDS011;7757;52.626;4.746;2023-07-02T07:06:41;19.63;;;4.35;;
15312;SDS011;7757;52.626;4.746;2023-07-02T07:09:07;16.35;;;4.78;;
15312;SDS011;7757;52.626;4.746;2023-07-02T07:11:32;20.02;;;4.63;;
15312;SDS011;7757;52.626;4.746;2023-07-02T07:13:58;15.48;;;4.32;;
15312;SDS011;7757;52.626;4.746;2023-07-02T07:16:23;19.88;;;4.57;;
15312;SDS011;7757;52.626;4.746;2023-07-02T07:18:48;20.13;;;4.93;;
15312;SDS011;7757;52.626;4.746;2023-07-02T07:21:14;18.17;;;4.18;;
15312;SDS011;7757;52.626;4.746;2023-07-02T07:23:40;27.10;;;4.45;;
15312;SDS011;7757;52.626;4.746;2023-07-02T07:26:05;18.65;;;4.63;;
15312;SDS011;7757;52.626;4.746;2023-07-02T07:28:31;16.83;;;4.20;;
15312;SDS011;7757;52.626;4.746;2023-07-02T07:30:56;15.10;;;4.00;;
15312;SDS011;7757;52.626;4.746;2023-07-02T07:33:22;22.52;;;4.32;;
15312;SDS011;7757;52.626;4.746;2023-07-02T07:35:47;17.13;;;4.70;;
15312;SDS011;7757;52.626;4.746;2023-07-02T07:38:13;16.95;;;3.85;;
15312;SDS011;7757;52.626;4.746;2023-07-02T07:40:39;17.73;;;4.40;;
15312;SDS011;7757;52.626;4.746;2023-07-02T07:43:05;17.35;;;4.78;;
15312;SDS011;7757;52.626;4.746;2023-07-02T07:45:30;17.85;;;4.50;;
15312;SDS011;7757;52.626;4.746;2023-07-02T07:47:56;22.33;;;4.78;;
15312;SDS011;7757;52.626;4.746;2023-07-02T07:50:21;21.13;;;4.47;;
15312;SDS011;7757;52.626;4.746;2023-07-02T07:52:47;20.58;;;4.40;;
15312;SDS011;7757;52.626;4.746;2023-07-02T07:55:12;15.38;;;3.97;;
15312;SDS011;7757;52.626;4.746;2023-07-02T07:57:38;18.13;;;4.32;;
15312;SDS011;7757;52.626;4.746;2023-07-02T08:00:04;14.50;;;3.95;;
15312;SDS011;7757;52.626;4.746;2023-07-02T08:02:33;16.92;;;4.10;;
15312;SDS011;7757;52.626;4.746;2023-07-02T08:04:58;15.10;;;4.18;;
15312;SDS011;7757;52.626;4.746;2023-07-02T08:07:23;15.25;;;3.90;;
15312;SDS011;7757;52.626;4.746;2023-07-02T08:09:49;16.85;;;4.07;;
15312;SDS011;7757;52.626;4.746;2023-07-02T08:12:14;18.77;;;3.75;;
15312;SDS011;7757;52.626;4.746;2023-07-02T08:14:39;15.00;;;4.05;;
15312;SDS011;7757;52.626;4.746;2023-07-02T08:17:05;15.77;;;3.67;;
15312;SDS011;7757;52.626;4.746;2023-07-02T08:19:31;18.13;;;4.05;;
15312;SDS011;7757;52.626;4.746;2023-07-02T08:21:56;20.77;;;4.00;;
15312;SDS011;7757;52.626;4.746;2023-07-02T08:24:22;20.77;;;4.68;;
15312;SDS011;7757;52.626;4.746;2023-07-02T08:26:47;15.65;;;3.28;;
15312;SDS011;7757;52.626;4.746;2023-07-02T08:29:14;15.57;;;4.20;;
15312;SDS011;7757;52.626;4.746;2023-07-02T08:31:40;13.55;;;3.60;;
15312;SDS011;7757;52.626;4.746;2023-07-02T08:34:06;16.80;;;4.35;;
15312;SDS011;7757;52.626;4.746;2023-07-02T08:36:35;20.30;;;4.47;;
15312;SDS011;7757;52.626;4.746;2023-07-02T08:39:00;15.48;;;3.85;;
15312;SDS011;7757;52.626;4.746;2023-07-02T08:41:28;16.48;;;3.95;;
15312;SDS011;7757;52.626;4.746;2023-07-02T08:43:55;14.07;;;3.60;;
15312;SDS011;7757;52.626;4.746;2023-07-02T08:46:21;17.50;;;4.18;;
15312;SDS011;7757;52.626;4.746;2023-07-02T08:48:46;15.82;;;4.18;;
15312;SDS011;7757;52.626;4.746;2023-07-02T08:51:12;18.73;;;4.13;;
15312;SDS011;7757;52.626;4.746;2023-07-02T08:53:38;17.25;;;3.60;;
15312;SDS011;7757;52.626;4.746;2023-07-02T08:56:03;15.13;;;3.55;;
15312;SDS011;7757;52.626;4.746;2023-07-02T08:58:29;17.63;;;4.10;;
15312;SDS011;7757;52.626;4.746;2023-07-02T09:01:04;13.45;;;4.00;;
15312;SDS011;7757;52.626;4.746;2023-07-02T09:03:37;15.38;;;3.92;;
15312;SDS011;7757;52.626;4.746;2023-07-02T09:06:07;14.30;;;3.67;;
15312;SDS011;7757;52.626;4.746;2023-07-02T09:08:33;16.13;;;3.65;;
15312;SDS011;7757;52.626;4.746;2023-07-02T09:13:30;14.05;;;3.40;;
15312;SDS011;7757;52.626;4.746;2023-07-02T09:15:56;17.45;;;4.22;;
15312;SDS011;7757;52.626;4.746;2023-07-02T09:18:24;12.95;;;3.50;;
15312;SDS011;7757;52.626;4.746;2023-07-02T09:20:56;15.25;;;3.90;;
15312;SDS011;7757;52.626;4.746;2023-07-02T09:23:21;15.15;;;3.65;;
15312;SDS011;7757;52.626;4.746;2023-07-02T09:25:47;17.73;;;3.55;;
15312;SDS011;7757;52.626;4.746;2023-07-02T09:30:50;19.55;;;3.83;;
15312;SDS011;7757;52.626;4.746;2023-07-02T09:33:19;15.13;;;3.20;;
15312;SDS011;7757;52.626;4.746;2023-07-02T09:35:45;20.10;;;3.67;;
15312;SDS011;7757;52.626;4.746;2023-07-02T09:38:11;16.90;;;3.53;;
15312;SDS011;7757;52.626;4.746;2023-07-02T09:40:38;17.58;;;3.47;;
15312;SDS011;7757;52.626;4.746;2023-07-02T09:43:12;12.23;;;3.13;;
15312;SDS011;7757;52.626;4.746;2023-07-02T09:45:38;16.30;;;3.95;;
15312;SDS011;7757;52.626;4.746;2023-07-02T09:48:04;13.73;;;3.55;;
15312;SDS011;7757;52.626;4.746;2023-07-02T09:50:31;16.77;;;3.90;;
15312;SDS011;7757;52.626;4.746;2023-07-02T09:52:57;16.50;;;3.38;;
15312;SDS011;7757;52.626;4.746;2023-07-02T09:55:23;13.35;;;2.97;;
15312;SDS011;7757;52.626;4.746;2023-07-02T09:57:52;14.82;;;4.03;;
15312;SDS011;7757;52.626;4.746;2023-07-02T10:00:17;18.17;;;3.83;;
15312;SDS011;7757;52.626;4.746;2023-07-02T10:02:47;18.35;;;4.03;;
15312;SDS011;7757;52.626;4.746;2023-07-02T10:05:28;18.90;;;4.35;;
15312;SDS011;7757;52.626;4.746;2023-07-02T10:07:55;16.83;;;3.80;;
15312;SDS011;7757;52.626;4.746;2023-07-02T10:10:25;15.88;;;3.92;;
15312;SDS011;7757;52.626;4.746;2023-07-02T10:12:52;14.65;;;3.60;;
15312;SDS011;7757;52.626;4.746;2023-07-02T10:15:26;20.27;;;4.63;;
15312;SDS011;7757;52.626;4.746;2023-07-02T10:17:56;18.67;;;4.03;;
15312;SDS011;7757;52.626;4.746;2023-07-02T10:20:39;18.60;;;3.90;;
15312;SDS011;7757;52.626;4.746;2023-07-02T10:23:06;16.20;;;3.72;;
15312;SDS011;7757;52.626;4.746;2023-07-02T10:25:33;17.83;;;3.97;;
15312;SDS011;7757;52.626;4.746;2023-07-02T10:28:19;16.70;;;3.53;;
15312;SDS011;7757;52.626;4.746;2023-07-02T10:30:47;15.73;;;3.72;;
15312;SDS011;7757;52.626;4.746;2023-07-02T10:33:14;14.18;;;3.30;;
15312;SDS011;7757;52.626;4.746;2023-07-02T10:35:41;14.25;;;3.83;;
15312;SDS011;7757;52.626;4.746;2023-07-02T10:41:00;14.57;;;3.97;;
15312;SDS011;7757;52.626;4.746;2023-07-02T10:43:29;15.93;;;4.03;;
15312;SDS011;7757;52.626;4.746;2023-07-02T10:45:57;16.83;;;3.72;;
15312;SDS011;7757;52.626;4.746;2023-07-02T10:48:27;18.45;;;4.63;;
15312;SDS011;7757;52.626;4.746;2023-07-02T10:50:53;18.23;;;4.10;;
15312;SDS011;7757;52.626;4.746;2023-07-02T10:53:28;16.25;;;4.65;;
15312;SDS011;7757;52.626;4.746;2023-07-02T10:55:56;16.83;;;4.22;;
15312;SDS011;7757;52.626;4.746;2023-07-02T10:58:22;18.33;;;4.40;;
15312;SDS011;7757;52.626;4.746;2023-07-02T11:00:49;15.30;;;4.00;;
15312;SDS011;7757;52.626;4.746;2023-07-02T11:03:19;18.33;;;4.50;;
15312;SDS011;7757;52.626;4.746;2023-07-02T11:05:46;17.63;;;4.20;;
15312;SDS011;7757;52.626;4.746;2023-07-02T11:08:12;18.45;;;4.30;;
15312;SDS011;7757;52.626;4.746;2023-07-02T11:10:40;16.42;;;4.35;;
15312;SDS011;7757;52.626;4.746;2023-07-02T11:13:12;15.32;;;3.72;;
15312;SDS011;7757;52.626;4.746;2023-07-02T11:15:39;16.05;;;4.05;;
15312;SDS011;7757;52.626;4.746;2023-07-02T11:18:13;17.75;;;4.30;;
15312;SDS011;7757;52.626;4.746;2023-07-02T11:20:43;18.20;;;4.00;;
15312;SDS011;7757;52.626;4.746;2023-07-02T11:23:16;17.65;;;4.75;;
15312;SDS011;7757;52.626;4.746;2023-07-02T11:25:54;16.48;;;4.53;;
15312;SDS011;7757;52.626;4.746;2023-07-02T11:28:30;15.55;;;3.97;;
15312;SDS011;7757;52.626;4.746;2023-07-02T11:30:59;22.13;;;4.77;;
15312;SDS011;7757;52.626;4.746;2023-07-02T11:36:06;16.67;;;4.25;;
15312;SDS011;7757;52.626;4.746;2023-07-02T11:38:33;15.35;;;4.10;;
15312;SDS011;7757;52.626;4.746;2023-07-02T11:41:02;14.88;;;4.30;;
15312;SDS011;7757;52.626;4.746;2023-07-02T11:43:28;16.33;;;4.40;;
15312;SDS011;7757;52.626;4.746;2023-07-02T11:45:54;18.13;;;4.82;;
15312;SDS011;7757;52.626;4.746;2023-07-02T11:48:19;16.27;;;4.38;;
15312;SDS011;7757;52.626;4.746;2023-07-02T11:50:44;16.70;;;4.35;;
15312;SDS011;7757;52.626;4.746;2023-07-02T11:53:13;19.05;;;4.40;;
15312;SDS011;7757;52.626;4.746;2023-07-02T11:55:38;19.52;;;4.68;;
15312;SDS011;7757;52.626;4.746;2023-07-02T11:58:04;16.60;;;4.57;;
15312;SDS011;7757;52.626;4.746;2023-07-02T12:00:29;15.90;;;4.35;;
15312;SDS011;7757;52.626;4.746;2023-07-02T12:02:55;16.98;;;4.07;;
15312;SDS011;7757;52.626;4.746;2023-07-02T12:05:20;15.77;;;4.47;;
15312;SDS011;7757;52.626;4.746;2023-07-02T12:07:48;15.38;;;3.88;;
15312;SDS011;7757;52.626;4.746;2023-07-02T12:10:17;19.30;;;4.43;;
15312;SDS011;7757;52.626;4.746;2023-07-02T12:12:46;15.98;;;4.00;;
15312;SDS011;7757;52.626;4.746;2023-07-02T12:15:11;14.57;;;4.00;;
15312;SDS011;7757;52.626;4.746;2023-07-02T12:17:36;16.17;;;4.15;;
15312;SDS011;7757;52.626;4.746;2023-07-02T12:20:02;15.68;;;4.35;;
15312;SDS011;7757;52.626;4.746;2023-07-02T12:22:31;16.17;;;4.10;;
15312;SDS011;7757;52.626;4.746;2023-07-02T12:24:59;13.52;;;3.80;;
15312;SDS011;7757;52.626;4.746;2023-07-02T12:27:25;13.65;;;3.85;;
15312;SDS011;7757;52.626;4.746;2023-07-02T12:29:55;18.30;;;4.78;;
15312;SDS011;7757;52.626;4.746;2023-07-02T12:32:21;15.85;;;4.03;;
15312;SDS011;7757;52.626;4.746;2023-07-02T12:34:46;16.65;;;4.30;;
15312;SDS011;7757;52.626;4.746;2023-07-02T12:37:12;14.02;;;4.00;;
15312;SDS011;7757;52.626;4.746;2023-07-02T12:39:42;16.38;;;4.13;;
15312;SDS011;7757;52.626;4.746;2023-07-02T12:42:07;14.38;;;3.92;;
15312;SDS011;7757;52.626;4.746;2023-07-02T12:44:32;18.55;;;3.75;;
15312;SDS011;7757;52.626;4.746;2023-07-02T12:46:58;17.42;;;4.30;;
15312;SDS011;7757;52.626;4.746;2023-07-02T12:49:23;15.02;;;3.83;;
15312;SDS011;7757;52.626;4.746;2023-07-02T12:51:48;15.95;;;3.83;;
15312;SDS011;7757;52.626;4.746;2023-07-02T12:54:17;15.88;;;4.35;;
15312;SDS011;7757;52.626;4.746;2023-07-02T12:56:42;15.55;;;4.13;;
15312;SDS011;7757;52.626;4.746;2023-07-02T12:59:08;14.48;;;4.22;;
15312;SDS011;7757;52.626;4.746;2023-07-02T13:01:33;20.45;;;4.65;;
15312;SDS011;7757;52.626;4.746;2023-07-02T13:03:58;16.98;;;4.25;;
15312;SDS011;7757;52.626;4.746;2023-07-02T13:06:24;18.75;;;4.13;;
15312;SDS011;7757;52.626;4.746;2023-07-02T13:08:56;15.23;;;3.97;;
15312;SDS011;7757;52.626;4.746;2023-07-02T13:11:24;16.25;;;4.05;;
15312;SDS011;7757;52.626;4.746;2023-07-02T13:13:50;14.15;;;3.92;;
15312;SDS011;7757;52.626;4.746;2023-07-02T13:16:16;16.42;;;3.85;;
15312;SDS011;7757;52.626;4.746;2023-07-02T13:18:41;16.38;;;4.32;;
15312;SDS011;7757;52.626;4.746;2023-07-02T13:21:07;16.30;;;4.40;;
15312;SDS011;7757;52.626;4.746;2023-07-02T13:23:32;15.27;;;4.32;;
15312;SDS011;7757;52.626;4.746;2023-07-02T13:26:03;19.50;;;4.50;;
15312;SDS011;7757;52.626;4.746;2023-07-02T13:28:29;21.38;;;4.22;;
15312;SDS011;7757;52.626;4.746;2023-07-02T13:30:54;21.38;;;4.63;;
15312;SDS011;7757;52.626;4.746;2023-07-02T13:33:23;18.17;;;4.28;;
15312;SDS011;7757;52.626;4.746;2023-07-02T13:35:48;16.25;;;4.38;;
15312;SDS011;7757;52.626;4.746;2023-07-02T13:38:14;17.10;;;4.97;;
15312;SDS011;7757;52.626;4.746;2023-07-02T13:40:42;16.30;;;4.60;;
15312;SDS011;7757;52.626;4.746;2023-07-02T13:43:08;14.05;;;3.95;;
15312;SDS011;7757;52.626;4.746;2023-07-02T13:45:36;20.20;;;4.40;;
15312;SDS011;7757;52.626;4.746;2023-07-02T13:48:01;15.60;;;4.63;;
15312;SDS011;7757;52.626;4.746;2023-07-02T13:50:27;14.80;;;3.97;;
15312;SDS011;7757;52.626;4.746;2023-07-02T13:52:52;17.10;;;4.18;;
15312;SDS011;7757;52.626;4.746;2023-07-02T13:55:18;13.73;;;3.72;;
15312;SDS011;7757;52.626;4.746;2023-07-02T13:57:43;13.80;;;3.85;;
15312;SDS011;7757;52.626;4.746;2023-07-02T14:00:09;15.32;;;4.30;;
15312;SDS011;7757;52.626;4.746;2023-07-02T14:02:34;16.73;;;4.40;;
15312;SDS011;7757;52.626;4.746;2023-07-02T14:05:00;13.20;;;4.03;;
15312;SDS011;7757;52.626;4.746;2023-07-02T14:07:26;19.30;;;4.95;;
15312;SDS011;7757;52.626;4.746;2023-07-02T14:09:51;18.67;;;4.70;;
15312;SDS011;7757;52.626;4.746;2023-07-02T14:12:17;13.63;;;3.70;;
15312;SDS011;7757;52.626;4.746;2023-07-02T14:14:42;16.38;;;4.32;;
15312;SDS011;7757;52.626;4.746;2023-07-02T14:17:08;17.70;;;4.38;;
15312;SDS011;7757;52.626;4.746;2023-07-02T14:19:33;16.33;;;4.65;;
15312;SDS011;7757;52.626;4.746;2023-07-02T14:21:59;15.60;;;5.05;;
15312;SDS011;7757;52.626;4.746;2023-07-02T14:24:24;14.77;;;3.67;;
15312;SDS011;7757;52.626;4.746;2023-07-02T14:26:51;15.15;;;4.45;;
15312;SDS011;7757;52.626;4.746;2023-07-02T14:29:16;15.07;;;4.07;;
15312;SDS011;7757;52.626;4.746;2023-07-02T14:31:42;17.33;;;4.50;;
15312;SDS011;7757;52.626;4.746;2023-07-02T14:34:08;17.75;;;4.55;;
15312;SDS011;7757;52.626;4.746;2023-07-02T14:36:33;15.23;;;3.92;;
15312;SDS011;7757;52.626;4.746;2023-07-02T14:38:58;17.95;;;4.20;;
15312;SDS011;7757;52.626;4.746;2023-07-02T14:41:24;14.23;;;4.32;;
15312;SDS011;7757;52.626;4.746;2023-07-02T14:43:49;15.77;;;4.13;;
15312;SDS011;7757;52.626;4.746;2023-07-02T14:46:15;17.95;;;3.85;;
15312;SDS011;7757;52.626;4.746;2023-07-02T14:48:40;15.80;;;4.40;;
15312;SDS011;7757;52.626;4.746;2023-07-02T14:51:06;18.20;;;4.00;;
15312;SDS011;7757;52.626;4.746;2023-07-02T14:53:32;14.27;;;4.00;;
15312;SDS011;7757;52.626;4.746;2023-07-02T14:56:00;14.38;;;4.00;;
15312;SDS011;7757;52.626;4.746;2023-07-02T14:58:30;13.10;;;3.97;;
15312;SDS011;7757;52.626;4.746;2023-07-02T15:00:56;15.60;;;3.90;;